Centerville, TX

9:24 PM CDT on April 01, 2015 (GMT -0500)
Hearne | | Change Station
CLOSE
Current Station
Airport
Location: Hearne,
Elevation: 285 ft
Nearby Weather Stations

Elev 285 ft 30.87 °N, 96.62 °W | Updated 9 minutes ago

Thunderstorm
Thunderstorm
68 °F
Feels Like 68 °F
N
4
Wind Variable Wind from ESE

Today
High -- | Low -- °F
--% Chance of Precip.
Yesterday
High -- | Low -- °F
Precip. -- in
7:12 AM 7:43 PM
Waxing Gibbous, 95% visible
Pressure 29.92 in
Visibility 10.0 miles
Clouds Clear
Dew Point 65 °F
Humidity 91%
Rainfall 0.04 in
Snow Depth Not available.
UV 0 out of 12
Pollen 10.70 out of 12
Air Quality Not available.
Flu Activity Not available.
METAR KLHB 020215Z AUTO 11003KT 10SM CLR 20/19 A2992 RMK AO2 T02000185

More Conditions Fewer Conditions

Pressure 29.92 in
Visibility 10.0 miles
Clouds Clear
Dew Point 65 °F
Humidity 91%
Rainfall 0.04 in
Snow Depth Not available.
UV 0 out of 12
Pollen 10.70 out of 12
Air Quality Not available.
Flu Activity Not available.
METAR KLHB 020215Z AUTO 11003KT 10SM CLR 20/19 A2992 RMK AO2 T02000185

More Conditions Fewer Conditions

10-Day Weather Forecast

Almanac

Astronomy

Apr. 01, 2015 Rise Set
Actual Time
Civil Twilight
Nautical Twilight
Astronomical Twilight
Moon
Length of Visible Light
Length of Day
Tomorrow will be .
, % of the Moon is Illuminated

Today's Extremes

State Highs State Lows

Community

WunderPhotos

Upload Photos

1,810,160 photos uploaded!

WunderBlogs® & News

Nearby

Air Quality

  Air Quality AQ Index Pollutant
Not available.

Snow Depth

Station Depth Elevation

Earthquake Activity

City Distance Mag. Time & Date
Minimum magnitude displayed is 2.5.

Coastal Water Temperatures

Place Temperature

Stations

Nearby Weather Stations

Station Location Temp. Windchill Dew Point Humidity Wind Precip. Elev Updated Type